createdAt,value
2022-11-27T00:01:12.393Z,6.92
2022-11-27T00:03:39.878Z,6.87
2022-11-27T00:06:07.529Z,6.91
2022-11-27T00:08:34.331Z,6.95
2022-11-27T00:11:09.002Z,6.96
2022-11-27T00:13:35.586Z,6.98
2022-11-27T00:16:02.665Z,6.86
2022-11-27T00:18:29.301Z,6.81
2022-11-27T00:20:56.068Z,6.89
2022-11-27T00:23:22.570Z,6.91
2022-11-27T00:25:53.147Z,7.04
2022-11-27T00:28:20.317Z,7.02
2022-11-27T00:30:47.423Z,7.02
2022-11-27T00:33:13.966Z,6.98
2022-11-27T00:35:40.972Z,7.02
2022-11-27T00:38:08.071Z,7.02
2022-11-27T00:40:34.739Z,7.01
2022-11-27T00:43:01.795Z,7.00
2022-11-27T00:45:29.882Z,7.02
2022-11-27T00:47:56.444Z,6.97
2022-11-27T00:50:22.983Z,6.94
2022-11-27T00:52:49.591Z,6.99
2022-11-27T00:55:16.102Z,7.01
2022-11-27T00:57:42.609Z,7.01
2022-11-27T01:00:09.744Z,6.97
2022-11-27T01:02:36.320Z,6.93
2022-11-27T01:05:02.913Z,6.96
2022-11-27T01:07:29.473Z,6.94
2022-11-27T01:09:56.004Z,6.92
2022-11-27T01:12:22.535Z,6.90
2022-11-27T01:14:49.093Z,6.81
2022-11-27T01:17:15.624Z,6.92
2022-11-27T01:19:42.180Z,6.84
2022-11-27T01:22:08.734Z,6.89
2022-11-27T01:24:35.378Z,6.83
2022-11-27T01:27:01.894Z,6.87
2022-11-27T01:29:28.383Z,6.94
2022-11-27T01:31:54.925Z,6.90
2022-11-27T01:34:21.516Z,6.82
2022-11-27T01:36:48.380Z,6.92
2022-11-27T01:39:20.214Z,6.92
2022-11-27T01:41:48.645Z,6.87
2022-11-27T01:44:24.225Z,6.81
2022-11-27T01:46:55.860Z,6.76
2022-11-27T01:49:35.442Z,6.73
2022-11-27T01:52:07.437Z,6.72
2022-11-27T01:54:45.544Z,6.65
2022-11-27T01:57:33.049Z,6.64
2022-11-27T02:00:01.500Z,6.66
2022-11-27T02:02:28.726Z,6.64
2022-11-27T02:04:55.742Z,6.56
2022-11-27T02:07:22.494Z,6.46
2022-11-27T02:09:49.248Z,6.31
2022-11-27T02:12:43.486Z,6.46
2022-11-27T02:15:41.476Z,6.48
2022-11-27T02:18:29.457Z,6.40
2022-11-27T02:21:10.786Z,6.34
2022-11-27T02:23:49.307Z,6.36
2022-11-27T02:26:18.668Z,6.36
2022-11-27T02:29:10.424Z,6.28
2022-11-27T02:32:20.818Z,6.18
2022-11-27T02:34:53.250Z,6.11
2022-11-27T02:37:32.047Z,6.04
2022-11-27T02:40:36.810Z,5.97
2022-11-27T02:43:15.823Z,5.87
2022-11-27T02:45:45.117Z,5.83
2022-11-27T02:48:15.317Z,5.73
2022-11-27T02:50:44.467Z,5.74
2022-11-27T02:53:33.561Z,5.76
2022-11-27T02:56:02.181Z,5.75
2022-11-27T02:58:29.832Z,5.83
2022-11-27T03:00:57.939Z,5.85
2022-11-27T03:03:29.592Z,5.87
2022-11-27T03:06:04.135Z,5.85
2022-11-27T03:08:38.310Z,5.78
2022-11-27T03:11:08.408Z,5.73
2022-11-27T03:13:39.862Z,5.61
2022-11-27T03:16:22.841Z,5.68
2022-11-27T03:19:09.676Z,5.63
2022-11-27T03:21:40.766Z,5.67
2022-11-27T03:24:08.506Z,5.64
2022-11-27T03:26:35.600Z,5.59
2022-11-27T03:29:04.719Z,5.52
2022-11-27T03:31:31.839Z,5.47
2022-11-27T03:33:59.082Z,5.39
2022-11-27T03:36:25.618Z,5.31
2022-11-27T03:38:54.272Z,5.24
2022-11-27T03:41:53.242Z,5.02
2022-11-27T03:44:26.683Z,5.19
2022-11-27T03:47:17.943Z,5.03
2022-11-27T03:50:11.695Z,5.11
2022-11-27T03:52:59.357Z,5.10
2022-11-27T03:55:33.525Z,5.09
2022-11-27T03:58:14.289Z,5.05
2022-11-27T04:00:42.237Z,5.05
2022-11-27T04:03:11.491Z,5.00
2022-11-27T04:05:38.406Z,4.96
2022-11-27T04:08:05.164Z,4.89
2022-11-27T04:10:31.803Z,4.75
2022-11-27T04:12:58.294Z,4.83
2022-11-27T04:15:24.865Z,4.78
2022-11-27T04:17:51.416Z,4.78
2022-11-27T04:20:18.007Z,4.58
2022-11-27T04:22:44.588Z,4.71
2022-11-27T04:25:11.540Z,4.68
2022-11-27T04:27:38.060Z,4.72
2022-11-27T04:30:05.219Z,4.72
2022-11-27T04:32:32.107Z,4.71
2022-11-27T04:34:58.650Z,4.63
2022-11-27T04:37:25.436Z,4.64
2022-11-27T04:39:52.012Z,4.61
2022-11-27T04:42:18.616Z,4.53
2022-11-27T04:44:45.159Z,4.38
2022-11-27T04:47:11.842Z,4.49
2022-11-27T04:49:38.816Z,4.45
2022-11-27T04:52:05.535Z,4.40
2022-11-27T04:54:32.592Z,4.37
2022-11-27T04:56:59.117Z,4.33
2022-11-27T04:59:25.804Z,4.33
2022-11-27T05:01:52.319Z,4.29
2022-11-27T05:04:18.916Z,4.27
2022-11-27T05:06:45.617Z,4.25
2022-11-27T05:09:12.265Z,4.22
2022-11-27T05:11:38.868Z,4.20
2022-11-27T05:14:22.648Z,4.22
2022-11-27T05:16:51.649Z,4.15
2022-11-27T05:19:20.225Z,4.07
2022-11-27T05:21:48.641Z,4.03
2022-11-27T05:24:16.910Z,3.99
2022-11-27T05:26:43.888Z,3.96
2022-11-27T05:29:11.664Z,3.95
2022-11-27T05:31:38.325Z,3.83
2022-11-27T05:34:05.399Z,3.86
2022-11-27T05:36:33.130Z,3.87
2022-11-27T05:39:00.455Z,3.87
2022-11-27T05:41:27.360Z,3.82
2022-11-27T05:43:53.972Z,3.81
2022-11-27T05:46:22.446Z,3.79
2022-11-27T05:48:49.717Z,3.80
2022-11-27T05:51:17.386Z,3.82
2022-11-27T05:53:43.932Z,3.88
2022-11-27T05:56:13.472Z,3.86
2022-11-27T05:58:41.400Z,3.67
2022-11-27T06:01:09.158Z,3.81
2022-11-27T06:03:36.190Z,3.83
2022-11-27T06:06:07.894Z,3.82
2022-11-27T06:08:35.915Z,3.87
2022-11-27T06:11:24.312Z,3.71
2022-11-27T06:13:51.085Z,3.94
2022-11-27T06:16:23.541Z,3.93
2022-11-27T06:18:55.035Z,3.93
2022-11-27T06:21:23.045Z,3.86
2022-11-27T06:23:52.826Z,3.71
2022-11-27T06:26:24.435Z,3.86
2022-11-27T06:28:51.796Z,3.69
2022-11-27T06:31:21.188Z,3.66
2022-11-27T06:33:49.258Z,3.73
2022-11-27T06:36:16.469Z,3.76
2022-11-27T06:38:43.215Z,3.68
2022-11-27T06:41:13.338Z,3.65
2022-11-27T06:43:40.035Z,3.61
2022-11-27T06:46:09.587Z,3.63
2022-11-27T06:48:36.179Z,3.59
2022-11-27T06:51:07.757Z,3.64
2022-11-27T06:53:36.577Z,3.71
2022-11-27T06:56:08.966Z,3.73
2022-11-27T06:58:36.746Z,3.79
2022-11-27T07:01:07.937Z,3.68
2022-11-27T07:03:35.360Z,3.67
2022-11-27T07:06:04.125Z,3.52
2022-11-27T07:08:31.723Z,3.55
2022-11-27T07:11:07.319Z,3.55
2022-11-27T07:13:33.939Z,3.52
2022-11-27T07:16:01.920Z,3.56
2022-11-27T07:18:29.996Z,3.53
2022-11-27T07:20:57.003Z,3.49
2022-11-27T07:23:23.805Z,3.43
2022-11-27T07:25:50.406Z,3.50
2022-11-27T07:28:19.127Z,3.39
2022-11-27T07:30:46.394Z,3.44
2022-11-27T07:33:13.085Z,3.48
2022-11-27T07:35:39.643Z,3.38
2022-11-27T07:38:06.220Z,3.52
2022-11-27T07:40:32.810Z,3.48
2022-11-27T07:42:59.578Z,3.55
2022-11-27T07:45:26.583Z,3.57
2022-11-27T07:47:53.120Z,3.58
2022-11-27T07:50:19.663Z,3.62
2022-11-27T07:52:46.218Z,3.63
2022-11-27T07:55:12.906Z,3.77
2022-11-27T07:57:39.846Z,3.86
2022-11-27T08:00:06.998Z,3.85
2022-11-27T08:02:33.524Z,3.82
2022-11-27T08:05:00.139Z,3.86
2022-11-27T08:07:30.723Z,3.91
2022-11-27T08:10:00.642Z,3.85
2022-11-27T08:12:27.300Z,3.96
2022-11-27T08:14:54.095Z,4.21
2022-11-27T08:17:20.779Z,4.23
2022-11-27T08:19:47.332Z,4.14
2022-11-27T08:22:14.899Z,4.36
2022-11-27T08:24:42.718Z,4.38
2022-11-27T08:27:10.098Z,4.37
2022-11-27T08:29:37.402Z,4.29
2022-11-27T08:32:04.999Z,4.31
2022-11-27T08:34:32.070Z,4.30
2022-11-27T08:36:58.725Z,4.30
2022-11-27T08:39:26.685Z,4.35
2022-11-27T08:41:54.054Z,4.40
2022-11-27T08:44:20.773Z,4.37
2022-11-27T08:46:47.466Z,4.31
2022-11-27T08:49:14.058Z,4.27
2022-11-27T08:51:40.608Z,4.09
2022-11-27T08:54:07.565Z,4.17
2022-11-27T08:56:34.419Z,4.16
2022-11-27T08:59:01.005Z,4.38
2022-11-27T09:01:31.000Z,4.36
2022-11-27T09:03:58.091Z,4.44
2022-11-27T09:06:29.552Z,4.51
2022-11-27T09:08:58.462Z,4.49
2022-11-27T09:11:25.556Z,4.59
2022-11-27T09:13:52.117Z,4.65
2022-11-27T09:16:20.604Z,4.56
2022-11-27T09:18:50.153Z,4.59
2022-11-27T09:21:18.727Z,4.66
2022-11-27T09:23:45.512Z,4.67
2022-11-27T09:26:14.948Z,4.58
2022-11-27T09:28:42.062Z,4.73
2022-11-27T09:31:12.022Z,4.83
2022-11-27T09:33:40.172Z,4.79
2022-11-27T09:36:09.364Z,4.82
2022-11-27T09:38:36.402Z,4.88
2022-11-27T09:41:26.099Z,4.89
2022-11-27T09:43:57.741Z,5.04
2022-11-27T09:46:36.929Z,5.10
2022-11-27T09:49:12.483Z,5.16
2022-11-27T09:51:58.179Z,5.12
2022-11-27T09:54:26.060Z,5.02
2022-11-27T09:56:56.323Z,4.97
2022-11-27T09:59:29.562Z,4.97
2022-11-27T10:01:57.228Z,5.01
2022-11-27T10:04:25.252Z,5.01
2022-11-27T10:06:54.610Z,5.10
2022-11-27T10:09:53.005Z,5.20
2022-11-27T10:12:41.313Z,5.43
2022-11-27T10:15:11.144Z,5.60
2022-11-27T10:17:52.399Z,5.71
2022-11-27T10:20:47.120Z,5.93
2022-11-27T10:23:20.659Z,6.22
2022-11-27T10:25:50.641Z,6.43
2022-11-27T10:28:46.329Z,6.64
2022-11-27T10:31:31.735Z,6.70
2022-11-27T10:34:23.558Z,6.57
2022-11-27T10:36:52.119Z,6.62
2022-11-27T10:39:42.547Z,6.56
2022-11-27T10:42:34.547Z,6.66
2022-11-27T10:45:05.976Z,6.83
2022-11-27T10:47:34.083Z,6.86
2022-11-27T10:50:01.321Z,7.06
2022-11-27T10:52:28.138Z,7.06
2022-11-27T10:55:04.547Z,6.96
2022-11-27T10:57:34.299Z,6.85
2022-11-27T11:00:25.150Z,7.05
2022-11-27T11:03:01.437Z,7.12
2022-11-27T11:08:20.116Z,7.25
2022-11-27T11:10:54.654Z,7.12
2022-11-27T11:13:31.656Z,7.23
2022-11-27T11:16:06.004Z,7.28
2022-11-27T11:18:35.790Z,7.28
2022-11-27T11:21:07.325Z,7.25
2022-11-27T11:23:40.940Z,7.30
2022-11-27T11:26:29.705Z,7.33
2022-11-27T11:28:59.378Z,7.31
2022-11-27T11:31:39.123Z,7.32
2022-11-27T11:34:27.395Z,7.34
2022-11-27T11:36:59.026Z,7.35
2022-11-27T11:39:49.053Z,7.46
2022-11-27T11:42:22.161Z,7.50
2022-11-27T11:44:54.830Z,7.59
2022-11-27T11:47:25.019Z,7.55
2022-11-27T11:49:53.935Z,7.58
2022-11-27T11:52:23.133Z,7.67
2022-11-27T11:55:21.467Z,7.59
2022-11-27T11:58:13.595Z,7.70
2022-11-27T12:01:18.955Z,7.72
2022-11-27T12:03:37.446Z,7.86
2022-11-27T12:06:21.408Z,7.94
2022-11-27T12:08:53.861Z,8.04
2022-11-27T12:11:43.179Z,8.07
2022-11-27T12:14:25.920Z,7.98
2022-11-27T12:17:20.577Z,7.88
2022-11-27T12:20:21.937Z,7.91
2022-11-27T12:23:01.519Z,8.06
2022-11-27T12:25:32.753Z,8.04
2022-11-27T12:28:20.940Z,8.22
2022-11-27T12:31:05.892Z,8.19
2022-11-27T12:33:45.462Z,8.22
2022-11-27T12:36:40.097Z,8.33
2022-11-27T12:39:20.324Z,8.38
2022-11-27T12:42:12.341Z,8.39
2022-11-27T12:44:46.024Z,8.40
2022-11-27T12:47:23.215Z,8.24
2022-11-27T12:49:57.395Z,8.37
2022-11-27T12:52:28.173Z,8.39
2022-11-27T12:55:18.795Z,8.43
2022-11-27T12:57:58.123Z,8.56
2022-11-27T13:00:27.432Z,8.41
2022-11-27T13:03:10.509Z,8.51
2022-11-27T13:05:44.190Z,8.54
2022-11-27T13:08:16.438Z,8.44
2022-11-27T13:11:01.285Z,8.31
2022-11-27T13:13:37.775Z,8.24
2022-11-27T13:16:11.126Z,8.07
2022-11-27T13:19:01.398Z,8.24
2022-11-27T13:21:32.383Z,8.08
2022-11-27T13:24:02.552Z,8.22
2022-11-27T13:26:37.191Z,8.03
2022-11-27T13:29:13.564Z,8.16
2022-11-27T13:31:43.521Z,8.21
2022-11-27T13:34:22.838Z,8.25
2022-11-27T13:37:02.729Z,8.27
2022-11-27T13:39:42.471Z,8.27
2022-11-27T13:42:22.122Z,8.27
2022-11-27T13:45:06.288Z,8.37
2022-11-27T13:47:41.034Z,8.34
2022-11-27T13:50:13.151Z,8.34
2022-11-27T13:52:54.701Z,8.43
2022-11-27T13:55:32.664Z,8.47
2022-11-27T13:58:01.314Z,8.51
2022-11-27T14:00:43.288Z,8.51
2022-11-27T14:03:28.122Z,8.56
2022-11-27T14:05:54.928Z,8.43
2022-11-27T14:08:28.199Z,8.57
2022-11-27T14:11:14.017Z,8.50
2022-11-27T14:13:45.043Z,8.46
2022-11-27T14:16:39.592Z,8.39
2022-11-27T14:19:42.368Z,8.37
2022-11-27T14:23:07.259Z,8.34
2022-11-27T14:25:31.684Z,8.21
2022-11-27T14:28:26.170Z,8.30
2022-11-27T14:30:56.879Z,8.26
2022-11-27T14:33:59.731Z,8.26
2022-11-27T14:36:25.457Z,8.17
2022-11-27T14:38:52.487Z,8.08
2022-11-27T14:41:22.528Z,8.08
2022-11-27T14:43:59.003Z,8.00
2022-11-27T14:46:25.825Z,7.99
2022-11-27T14:48:55.340Z,7.95
2022-11-27T14:51:29.989Z,7.91
2022-11-27T14:54:02.668Z,7.83
2022-11-27T14:56:33.496Z,7.83
2022-11-27T14:59:00.922Z,7.79
2022-11-27T15:01:33.608Z,7.59
2022-11-27T15:04:03.614Z,7.66
2022-11-27T15:06:35.687Z,7.51
2022-11-27T15:09:30.655Z,7.59
2022-11-27T15:12:17.187Z,7.70
2022-11-27T15:14:55.492Z,7.67
2022-11-27T15:17:27.456Z,7.67
2022-11-27T15:19:56.085Z,7.55
2022-11-27T15:22:23.195Z,7.67
2022-11-27T15:25:05.330Z,7.67
2022-11-27T15:27:43.987Z,7.65
2022-11-27T15:30:21.757Z,7.64
2022-11-27T15:32:54.701Z,7.62
2022-11-27T15:35:36.275Z,7.63
2022-11-27T15:38:11.170Z,7.61
2022-11-27T15:40:40.686Z,7.58
2022-11-27T15:43:14.928Z,7.60
2022-11-27T15:45:43.650Z,7.47
2022-11-27T15:48:18.715Z,7.55
2022-11-27T15:50:51.392Z,7.56
2022-11-27T15:53:18.540Z,7.54
2022-11-27T15:55:45.167Z,7.53
2022-11-27T15:58:11.701Z,7.49
2022-11-27T16:00:38.312Z,7.35
2022-11-27T16:03:05.006Z,7.32
2022-11-27T16:05:31.598Z,7.34
2022-11-27T16:08:01.613Z,7.33
2022-11-27T16:10:28.457Z,7.28
2022-11-27T16:12:55.392Z,7.23
2022-11-27T16:15:23.551Z,7.16
2022-11-27T16:17:50.541Z,7.25
2022-11-27T16:20:17.224Z,7.24
2022-11-27T16:22:43.800Z,7.30
2022-11-27T16:25:10.320Z,7.28
2022-11-27T16:27:37.113Z,7.29
2022-11-27T16:30:04.323Z,7.25
2022-11-27T16:32:30.952Z,7.11
2022-11-27T16:34:57.539Z,7.15
2022-11-27T16:37:24.233Z,7.10
2022-11-27T16:39:50.790Z,7.08
2022-11-27T16:42:17.345Z,7.06
2022-11-27T16:44:44.472Z,7.10
2022-11-27T16:47:12.063Z,7.02
2022-11-27T16:49:38.588Z,7.05
2022-11-27T16:52:05.294Z,7.06
2022-11-27T16:54:31.851Z,6.98
2022-11-27T16:56:59.920Z,6.95
2022-11-27T16:59:26.571Z,6.93
2022-11-27T17:01:53.196Z,6.99
2022-11-27T17:04:21.077Z,7.06
2022-11-27T17:06:49.258Z,6.76
2022-11-27T17:09:17.207Z,7.01
2022-11-27T17:11:48.399Z,7.00
2022-11-27T17:14:16.290Z,6.98
2022-11-27T17:16:43.458Z,6.91
2022-11-27T17:19:14.335Z,6.77
2022-11-27T17:21:42.169Z,6.88
2022-11-27T17:24:15.496Z,6.92
2022-11-27T17:26:43.699Z,6.81
2022-11-27T17:29:12.099Z,6.93
2022-11-27T17:31:39.843Z,6.93
2022-11-27T17:34:07.290Z,6.88
2022-11-27T17:36:37.186Z,6.84
2022-11-27T17:39:05.748Z,6.82
2022-11-27T17:41:32.539Z,6.81
2022-11-27T17:43:59.357Z,6.80
2022-11-27T17:46:28.026Z,6.79
2022-11-27T17:48:58.006Z,6.74
2022-11-27T17:51:25.214Z,6.62
2022-11-27T17:53:51.896Z,6.75
2022-11-27T17:56:20.548Z,6.55
2022-11-27T17:58:47.959Z,6.65
2022-11-27T18:01:22.653Z,6.64
2022-11-27T18:03:49.628Z,6.62
2022-11-27T18:06:17.975Z,6.61
2022-11-27T18:08:45.567Z,6.61
2022-11-27T18:11:17.606Z,6.48
2022-11-27T18:13:44.778Z,6.62
2022-11-27T18:16:14.388Z,6.62
2022-11-27T18:18:41.174Z,6.43
2022-11-27T18:21:27.249Z,6.64
2022-11-27T18:29:28.535Z,6.66
2022-11-27T18:31:55.174Z,6.49
2022-11-27T18:34:21.817Z,6.58
2022-11-27T18:36:48.350Z,6.52
2022-11-27T18:39:15.721Z,6.47
2022-11-27T18:41:42.342Z,6.49
2022-11-27T18:44:10.241Z,6.47
2022-11-27T18:46:37.012Z,6.44
2022-11-27T18:49:03.973Z,6.44
2022-11-27T18:51:30.537Z,6.40
2022-11-27T18:53:57.302Z,6.39
2022-11-27T18:56:27.722Z,6.36
2022-11-27T18:58:54.492Z,6.36
2022-11-27T19:01:26.760Z,6.32
2022-11-27T19:03:54.207Z,6.20
2022-11-27T19:06:23.768Z,6.30
2022-11-27T19:08:50.653Z,6.24
2022-11-27T19:11:20.666Z,6.22
2022-11-27T19:13:48.279Z,6.16
2022-11-27T19:16:18.523Z,6.15
2022-11-27T19:18:45.258Z,6.16
2022-11-27T19:21:23.847Z,6.16
2022-11-27T19:23:51.643Z,6.21
2022-11-27T19:26:28.952Z,6.19
2022-11-27T19:28:58.365Z,6.18
2022-11-27T19:31:26.426Z,6.15
2022-11-27T19:34:01.332Z,6.07
2022-11-27T19:36:29.860Z,6.16
2022-11-27T19:39:02.368Z,6.14
2022-11-27T19:41:29.071Z,6.21
2022-11-27T19:43:55.617Z,6.19
2022-11-27T19:46:27.872Z,6.05
2022-11-27T19:48:56.767Z,6.17
2022-11-27T19:51:24.521Z,6.17
2022-11-27T19:53:51.197Z,6.01
2022-11-27T19:56:18.320Z,5.99
2022-11-27T19:58:45.225Z,6.08
2022-11-27T20:01:15.407Z,6.16
2022-11-27T20:03:43.150Z,6.09
2022-11-27T20:06:18.496Z,6.24
2022-11-27T20:08:46.592Z,6.29
2022-11-27T20:11:15.385Z,6.29
2022-11-27T20:13:42.118Z,6.27
2022-11-27T20:16:14.013Z,6.16
2022-11-27T20:18:41.612Z,6.15
2022-11-27T20:21:14.392Z,6.11
2022-11-27T20:23:41.743Z,6.07
2022-11-27T20:26:10.850Z,6.16
2022-11-27T20:28:38.876Z,6.20
2022-11-27T20:31:05.571Z,6.26
2022-11-27T20:33:32.519Z,6.24
2022-11-27T20:36:00.364Z,6.24
2022-11-27T20:38:27.025Z,6.22
2022-11-27T20:40:53.885Z,6.20
2022-11-27T20:43:20.698Z,6.15
2022-11-27T20:45:47.486Z,6.18
2022-11-27T20:48:14.129Z,6.13
2022-11-27T20:50:40.756Z,6.17
2022-11-27T20:53:07.523Z,6.17
2022-11-27T20:55:34.648Z,6.17
2022-11-27T20:58:01.165Z,6.13
2022-11-27T21:00:28.296Z,6.21
2022-11-27T21:02:54.814Z,6.26
2022-11-27T21:05:21.363Z,6.25
2022-11-27T21:07:47.988Z,6.23
2022-11-27T21:10:16.943Z,6.17
2022-11-27T21:12:43.573Z,6.10
2022-11-27T21:15:11.031Z,6.01
2022-11-27T21:17:37.568Z,6.09
2022-11-27T21:20:04.756Z,6.07
2022-11-27T21:22:31.556Z,6.04
2022-11-27T21:24:58.097Z,6.02
2022-11-27T21:27:24.764Z,6.04
2022-11-27T21:29:51.426Z,6.10
2022-11-27T21:32:18.241Z,6.12
2022-11-27T21:34:44.949Z,6.09
2022-11-27T21:37:11.473Z,6.08
2022-11-27T21:39:38.533Z,6.03
2022-11-27T21:42:05.069Z,6.02
2022-11-27T21:44:31.574Z,6.02
2022-11-27T21:46:59.897Z,5.83
2022-11-27T21:49:26.480Z,5.93
2022-11-27T21:51:54.540Z,5.85
2022-11-27T21:54:22.181Z,5.87
2022-11-27T21:56:51.666Z,5.78
2022-11-27T21:59:18.516Z,5.84
2022-11-27T22:01:45.747Z,5.98
2022-11-27T22:04:12.815Z,5.97
2022-11-27T22:06:41.317Z,5.95
2022-11-27T22:09:14.712Z,5.97
2022-11-27T22:11:42.113Z,6.02
2022-11-27T22:14:08.949Z,6.08
2022-11-27T22:16:42.927Z,6.11
2022-11-27T22:19:11.732Z,6.09
2022-11-27T22:21:38.307Z,5.97
2022-11-27T22:24:05.023Z,5.92
2022-11-27T22:26:31.683Z,5.79
2022-11-27T22:28:58.675Z,5.84
2022-11-27T22:31:30.278Z,5.67
2022-11-27T22:33:57.601Z,5.71
2022-11-27T22:36:35.103Z,5.78
2022-11-27T22:39:05.021Z,5.74
2022-11-27T22:41:35.316Z,5.53
2022-11-27T22:44:11.570Z,5.63
2022-11-27T22:46:42.437Z,5.65
2022-11-27T22:49:11.471Z,5.66
2022-11-27T22:51:38.557Z,5.67
2022-11-27T22:54:07.160Z,5.60
2022-11-27T22:56:34.284Z,5.61
2022-11-27T22:59:30.341Z,5.47
2022-11-27T23:01:48.732Z,5.63
2022-11-27T23:04:15.600Z,5.59
2022-11-27T23:06:42.212Z,5.56
2022-11-27T23:09:09.564Z,5.58
2022-11-27T23:11:36.103Z,5.62
2022-11-27T23:14:03.424Z,5.64
2022-11-27T23:16:30.259Z,5.61
2022-11-27T23:18:57.376Z,5.60
2022-11-27T23:21:24.693Z,5.62
2022-11-27T23:23:51.626Z,5.58
2022-11-27T23:26:20.805Z,5.62
2022-11-27T23:28:49.753Z,5.64
2022-11-27T23:31:36.480Z,5.61
2022-11-27T23:34:07.199Z,5.57
2022-11-27T23:36:34.186Z,5.66
2022-11-27T23:39:01.445Z,5.54
2022-11-27T23:41:27.975Z,5.61
2022-11-27T23:43:55.369Z,5.57
2022-11-27T23:46:26.210Z,5.54
2022-11-27T23:48:57.757Z,5.53
2022-11-27T23:51:27.276Z,5.54
2022-11-27T23:53:54.309Z,5.55
2022-11-27T23:56:26.059Z,5.53
2022-11-27T23:58:54.112Z,5.54
